Time;durP1;ratioP1;P1;durP2;ratioP2;P2;SDS_P1;SDS_P2;PMS_P1;PMS_P2;Temp;Humidity;BMP_temperature;BMP_pressure;BME280_temperature;BME280_humidity;BME280_pressure;Samples;Min_cycle;Max_cycle;Signal;HPM_P1;HPM_P2
2021/05/07 00:01:37;;;;;;;10.88;5.03;;;;;;;6.23;95.81;100786.19;10358173;28;20053;-83
2021/05/07 00:06:37;;;;;;;8.43;5.32;;;;;;;6.26;94.94;100790.09;10355377;28;20041;-83
2021/05/07 00:11:38;;;;;;;7.85;5.40;;;;;;;5.87;95.33;100736.56;10354892;28;20045;-84
2021/05/07 00:16:38;;;;;;;8.35;4.47;;;;;;;6.20;95.16;100780.69;10356540;28;20053;-78
2021/05/07 00:21:39;;;;;;;7.63;4.55;;;;;;;6.00;95.27;100760.81;10355728;28;20394;-84
2021/05/07 00:26:39;;;;;;;9.35;4.97;;;;;;;6.24;94.89;100798.47;10340436;28;20045;-78
2021/05/07 00:31:40;;;;;;;9.02;5.13;;;;;;;6.32;94.98;100805.66;10355390;28;20053;-77
2021/05/07 00:36:40;;;;;;;8.40;6.13;;;;;;;6.46;94.93;100804.56;10351824;28;20054;-78
2021/05/07 00:41:41;;;;;;;7.80;5.43;;;;;;;6.51;94.32;100790.94;10352876;28;20137;-77
2021/05/07 00:46:43;;;;;;;10.10;6.40;;;;;;;6.61;93.85;100800.47;10354017;28;20046;-78
2021/05/07 00:51:43;;;;;;;12.07;7.80;;;;;;;6.82;94.96;100832.63;10337935;28;20038;-77
2021/05/07 00:56:44;;;;;;;14.43;9.27;;;;;;;6.86;94.93;100822.78;10353732;28;20281;-77
2021/05/07 01:01:44;;;;;;;15.15;11.00;;;;;;;6.85;95.71;100805.13;10319662;28;20022;-81
2021/05/07 01:06:45;;;;;;;16.38;10.07;;;;;;;6.91;94.75;100809.13;10355877;28;20041;-77
2021/05/07 01:11:46;;;;;;;15.32;10.65;;;;;;;7.04;94.68;100810.72;10338900;28;20038;-77
2021/05/07 01:16:46;;;;;;;19.77;11.82;;;;;;;6.93;94.57;100783.50;10357199;28;20058;-80
2021/05/07 01:21:47;;;;;;;15.50;11.18;;;;;;;6.92;94.09;100794.59;10353042;28;20045;-84
2021/05/07 01:26:47;;;;;;;13.82;10.80;;;;;;;6.55;95.44;100765.00;10356221;28;20045;-82
2021/05/07 01:31:53;;;;;;;16.38;12.38;;;;;;;6.68;96.84;100785.38;10353548;28;20025;-84
2021/05/07 01:36:55;;;;;;;16.42;12.18;;;;;;;6.64;97.22;100784.47;10369606;28;20054;-80
2021/05/07 01:41:55;;;;;;;18.10;13.07;;;;;;;6.70;98.06;100783.16;10370115;28;20057;-77
2021/05/07 01:46:56;;;;;;;25.30;14.95;;;;;;;6.75;100.00;100791.00;10357651;28;20046;-82
2021/05/07 01:51:58;;;;;;;23.38;15.55;;;;;;;6.34;100.00;100732.84;10349259;28;20038;-80
2021/05/07 01:56:59;;;;;;;19.35;15.75;;;;;;;6.73;100.00;100782.47;10358398;28;20398;-77
2021/05/07 02:01:59;;;;;;;22.00;16.23;;;;;;;6.59;100.00;100765.91;10357120;28;20046;-77
2021/05/07 02:07:00;;;;;;;22.50;15.48;;;;;;;6.65;100.00;100764.53;10358655;28;20049;-80
2021/05/07 02:12:00;;;;;;;21.42;15.70;;;;;;;6.53;100.00;100767.22;10343012;28;20037;-77
2021/05/07 02:17:01;;;;;;;21.63;15.05;;;;;;;6.01;100.00;100695.28;10356397;28;20888;-77
2021/05/07 02:22:02;;;;;;;21.17;15.07;;;;;;;6.33;100.00;100758.91;10358157;28;20046;-81
2021/05/07 02:27:03;;;;;;;20.30;14.27;;;;;;;5.69;100.00;100670.78;10376220;28;20045;-79
2021/05/07 02:32:04;;;;;;;18.75;13.57;;;;;;;6.26;100.00;100758.66;10373224;28;20034;-81
2021/05/07 02:37:04;;;;;;;22.02;14.20;;;;;;;6.05;100.00;100715.00;10328194;28;20053;-80
2021/05/07 02:42:05;;;;;;;21.10;13.52;;;;;;;6.31;100.00;100766.50;10362036;28;20038;-76
2021/05/07 02:47:06;;;;;;;18.52;13.00;;;;;;;6.41;100.00;100786.00;10371754;28;20486;-80
2021/05/07 02:52:06;;;;;;;22.60;14.20;;;;;;;6.48;100.00;100786.22;10355406;28;20042;-81
2021/05/07 02:57:07;;;;;;;23.10;13.73;;;;;;;6.42;100.00;100792.91;10370556;28;20634;-79
2021/05/07 03:02:07;;;;;;;15.35;7.90;;;;;;;6.52;100.00;100771.03;10352944;28;20594;-77
2021/05/07 03:07:08;;;;;;;9.02;4.65;;;;;;;6.56;100.00;100777.28;10361072;28;20045;-77
2021/05/07 03:12:09;;;;;;;10.98;3.97;;;;;;;6.43;100.00;100756.91;10358114;28;20109;-78
2021/05/07 03:17:10;;;;;;;10.20;3.78;;;;;;;6.71;100.00;100800.84;10358654;28;20034;-78
2021/05/07 03:22:10;;;;;;;8.43;3.75;;;;;;;6.70;100.00;100783.16;10356459;28;20502;-80
2021/05/07 03:27:11;;;;;;;8.52;4.20;;;;;;;6.82;100.00;100789.63;10354508;28;20030;-81
2021/05/07 03:32:11;;;;;;;8.25;4.50;;;;;;;6.86;100.00;100806.66;10370794;28;20104;-77
2021/05/07 03:37:12;;;;;;;8.20;3.75;;;;;;;6.62;100.00;100786.72;10340624;28;20133;-77
2021/05/07 03:42:12;;;;;;;8.55;4.13;;;;;;;6.77;97.49;100834.44;10358610;28;20584;-84
2021/05/07 03:47:13;;;;;;;10.27;4.78;;;;;;;6.42;93.53;100809.84;10352999;28;20050;-78
2021/05/07 03:52:13;;;;;;;7.45;5.10;;;;;;;6.25;96.31;100874.41;10356354;28;20045;-79
2021/05/07 03:57:14;;;;;;;9.65;5.75;;;;;;;5.87;98.05;100897.53;10356934;28;20253;-77
2021/05/07 04:02:14;;;;;;;8.57;5.63;;;;;;;5.85;98.47;100905.13;10367782;28;20034;-78
2021/05/07 04:07:15;;;;;;;7.55;5.47;;;;;;;5.76;99.01;100938.47;10357563;28;20671;-80
2021/05/07 04:17:22;;;;;;;5.38;2.90;;;;;;;5.54;96.39;100995.84;10371232;28;20688;-78
2021/05/07 04:22:23;;;;;;;4.93;3.22;;;;;;;4.93;98.07;100951.22;10372764;28;20137;-81
2021/05/07 04:27:23;;;;;;;2.90;1.90;;;;;;;5.23;96.97;101034.41;10355473;28;21430;-82
2021/05/07 04:32:25;;;;;;;3.28;1.90;;;;;;;4.99;98.78;101041.03;10333248;28;20152;-78
2021/05/07 04:37:26;;;;;;;2.38;1.55;;;;;;;4.90;99.19;101059.00;10335699;28;20070;-77
2021/05/07 04:42:26;;;;;;;3.10;1.90;;;;;;;4.65;100.00;101058.66;10333177;28;20049;-82
2021/05/07 04:47:27;;;;;;;3.63;2.53;;;;;;;3.99;100.00;100988.31;10356647;28;20038;-78
2021/05/07 04:52:27;;;;;;;4.25;3.00;;;;;;;4.53;100.00;101077.22;10356461;28;20480;-78
2021/05/07 04:57:28;;;;;;;5.65;3.65;;;;;;;4.54;100.00;101081.50;10356248;28;20433;-77
2021/05/07 05:02:29;;;;;;;6.43;3.60;;;;;;;4.65;100.00;101096.16;10350395;28;20136;-81
2021/05/07 05:07:30;;;;;;;6.65;4.50;;;;;;;4.53;100.00;101109.34;10352000;28;20058;-84
2021/05/07 05:12:33;;;;;;;7.25;5.00;;;;;;;4.47;100.00;101110.63;10319763;28;20137;-77
2021/05/07 05:17:34;;;;;;;5.18;4.28;;;;;;;4.42;100.00;101086.66;10367082;28;20049;-79
2021/05/07 05:22:35;;;;;;;7.20;4.97;;;;;;;4.65;100.00;101149.69;10371429;28;20040;-80
2021/05/07 05:27:36;;;;;;;6.25;4.53;;;;;;;4.70;100.00;101156.03;10348020;28;20084;-82
2021/05/07 05:32:37;;;;;;;12.45;5.90;;;;;;;4.86;100.00;101154.47;10361273;28;20113;-78
2021/05/07 05:37:37;;;;;;;9.55;5.25;;;;;;;4.72;100.00;101116.34;10360224;28;20417;-78
2021/05/07 05:42:38;;;;;;;7.65;4.20;;;;;;;5.17;100.00;101170.44;10355585;28;20161;-78
2021/05/07 05:47:38;;;;;;;5.28;4.10;;;;;;;5.16;100.00;101184.19;10377975;28;20046;-83
2021/05/07 05:52:39;;;;;;;6.13;3.90;;;;;;;5.02;100.00;101185.09;10363843;28;20637;-77
2021/05/07 05:57:39;;;;;;;6.10;4.45;;;;;;;5.25;100.00;101209.09;10360490;28;20040;-78
2021/05/07 06:02:40;;;;;;;7.18;4.47;;;;;;;5.14;100.00;101191.72;10352318;28;20041;-83
2021/05/07 06:07:43;;;;;;;6.47;4.70;;;;;;;5.23;100.00;101211.28;10377374;28;20045;-80
2021/05/07 06:12:48;;;;;;;8.65;4.85;;;;;;;4.93;100.00;101186.97;10340333;28;20034;-79
2021/05/07 06:17:49;;;;;;;7.28;4.78;;;;;;;5.09;100.00;101212.22;10339533;28;20125;-78
2021/05/07 06:22:49;;;;;;;7.57;5.25;;;;;;;5.28;100.00;101225.31;10362792;28;20052;-80
2021/05/07 06:27:50;;;;;;;7.05;3.88;;;;;;;5.26;100.00;101221.38;10359972;28;20034;-78
2021/05/07 06:32:51;;;;;;;10.52;3.90;;;;;;;5.23;100.00;101208.63;10343412;28;20064;-83
2021/05/07 06:37:51;;;;;;;6.38;4.00;;;;;;;5.58;100.00;101256.91;10337911;28;20065;-83
2021/05/07 06:42:52;;;;;;;8.40;3.75;;;;;;;5.65;100.00;101260.69;10361096;28;20128;-80
2021/05/07 06:47:52;;;;;;;6.78;4.20;;;;;;;5.81;100.00;101269.06;10342999;28;20490;-84
2021/05/07 06:52:53;;;;;;;5.78;3.63;;;;;;;5.87;100.00;101265.09;10342118;28;20056;-81
2021/05/07 06:57:53;;;;;;;8.50;3.78;;;;;;;6.05;100.00;101283.94;10357684;28;20049;-84
2021/05/07 07:02:54;;;;;;;6.60;3.30;;;;;;;6.35;100.00;101293.69;10358717;28;20128;-83
2021/05/07 07:07:54;;;;;;;5.60;3.60;;;;;;;6.19;100.00;101252.34;10322653;28;20104;-84
2021/05/07 07:12:55;;;;;;;5.50;2.90;;;;;;;7.00;100.00;101307.06;10375098;28;20593;-79
2021/05/07 07:17:56;;;;;;;18.40;4.45;;;;;;;7.46;95.47;101269.66;10323570;28;20069;-78
2021/05/07 07:22:59;;;;;;;6.07;3.53;;;;;;;8.02;89.28;101308.63;10371672;28;20255;-80
2021/05/07 07:28:00;;;;;;;7.07;3.97;;;;;;;8.00;87.51;101327.00;10315519;28;20040;-79
2021/05/07 07:33:00;;;;;;;6.32;3.85;;;;;;;8.31;86.06;101296.16;10334377;28;20583;-77
2021/05/07 07:38:04;;;;;;;6.78;3.25;;;;;;;10.58;73.71;101324.25;10351349;28;20537;-84
2021/05/07 07:43:05;;;;;;;5.40;2.72;;;;;;;12.10;66.99;101337.38;10351904;28;20132;-84
2021/05/07 07:48:06;;;;;;;7.75;3.35;;;;;;;13.27;63.65;101345.22;10356302;28;20092;-81
2021/05/07 07:53:07;;;;;;;7.45;2.88;;;;;;;13.44;55.71;101312.13;10369203;28;20080;-83
2021/05/07 07:58:08;;;;;;;4.78;2.58;;;;;;;13.27;54.63;101356.88;10338704;28;20040;-79
2021/05/07 08:03:08;;;;;;;3.95;2.70;;;;;;;14.31;51.45;101308.50;10368786;28;20045;-79
2021/05/07 08:08:09;;;;;;;3.95;2.42;;;;;;;15.02;48.82;101368.25;10344855;28;20340;-80
2021/05/07 08:13:09;;;;;;;4.68;2.80;;;;;;;17.00;43.55;101340.69;10355019;28;20045;-80
2021/05/07 08:18:10;;;;;;;4.43;2.53;;;;;;;15.28;45.38;101369.25;10354369;28;20041;-84
2021/05/07 08:23:11;;;;;;;4.90;2.88;;;;;;;12.64;51.97;101341.09;10333896;28;20054;-79
2021/05/07 08:28:11;;;;;;;3.88;2.17;;;;;;;12.73;51.14;101397.81;10348633;28;20044;-77
2021/05/07 08:33:12;;;;;;;5.55;2.70;;;;;;;15.08;44.77;101404.88;10369182;28;20056;-77
2021/05/07 08:38:12;;;;;;;4.57;1.95;;;;;;;16.54;41.73;101419.75;10353738;28;20092;-78
2021/05/07 08:43:14;;;;;;;4.68;2.42;;;;;;;13.86;44.94;101365.47;10356139;28;20061;-81
2021/05/07 08:48:16;;;;;;;4.37;2.30;;;;;;;14.18;47.51;101430.34;10373194;28;20037;-76
2021/05/07 08:53:17;;;;;;;2.95;1.67;;;;;;;14.64;43.94;101353.94;10350032;28;20054;-82
2021/05/07 08:58:18;;;;;;;7.28;2.80;;;;;;;16.12;39.86;101383.75;10354899;28;20838;-81
2021/05/07 09:03:19;;;;;;;4.53;1.77;;;;;;;16.44;39.40;101449.34;10330625;28;20321;-82
2021/05/07 09:08:29;;;;;;;5.40;1.80;;;;;;;14.68;41.76;101458.16;10330713;28;20040;-80
2021/05/07 09:13:30;;;;;;;4.68;1.90;;;;;;;14.70;43.18;101461.28;10351493;28;20026;-75
2021/05/07 09:18:43;;;;;;;4.63;2.20;;;;;;;14.88;44.78;101466.13;10366913;28;20081;-76
2021/05/07 09:23:51;;;;;;;4.57;2.45;;;;;;;14.61;44.28;101496.16;10359843;28;20318;-76
2021/05/07 09:28:55;;;;;;;5.47;2.10;;;;;;;15.29;43.28;101452.53;10343145;28;20036;-79
2021/05/07 09:34:04;;;;;;;6.18;2.10;;;;;;;16.11;41.19;101487.75;10369077;28;20034;-82
2021/05/07 09:39:13;;;;;;;3.45;1.58;;;;;;;15.70;42.53;101449.72;10360927;28;20057;-81
2021/05/07 09:44:15;;;;;;;4.70;2.22;;;;;;;15.13;44.40;101508.00;10358286;28;20045;-79
2021/05/07 09:49:25;;;;;;;6.22;2.70;;;;;;;14.71;44.99;101498.22;10377480;28;20034;-79
2021/05/07 09:54:26;;;;;;;5.63;2.78;;;;;;;15.04;47.13;101521.16;10357949;28;20044;-84
2021/05/07 09:59:29;;;;;;;6.72;2.85;;;;;;;15.77;46.74;101526.13;10361859;28;20030;-79
2021/05/07 10:04:30;;;;;;;5.38;2.65;;;;;;;15.64;45.34;101534.56;10371992;28;20042;-78
2021/05/07 10:09:31;;;;;;;7.10;3.58;;;;;;;15.20;47.20;101538.03;10366406;28;20038;-81
2021/05/07 10:14:32;;;;;;;7.18;3.22;;;;;;;14.76;46.61;101518.88;10365907;28;20034;-80
2021/05/07 10:19:42;;;;;;;5.40;3.25;;;;;;;14.36;47.42;101561.88;10363811;28;20501;-84
2021/05/07 10:24:43;;;;;;;9.43;4.00;;;;;;;13.94;48.71;101546.50;10369504;28;20485;-78
2021/05/07 10:29:57;;;;;;;10.80;3.90;;;;;;;14.59;47.67;101558.34;10352686;28;20034;-86
2021/05/07 10:34:58;;;;;;;6.28;3.42;;;;;;;14.86;46.05;101588.22;10347508;28;20048;-80
2021/05/07 10:39:59;;;;;;;11.10;4.90;;;;;;;15.19;44.92;101563.72;10328681;28;20042;-77
2021/05/07 10:45:00;;;;;;;6.97;2.83;;;;;;;15.32;45.03;101571.63;10368627;28;20053;-82
2021/05/07 10:50:14;;;;;;;7.43;3.78;;;;;;;14.79;45.68;101557.03;10375493;28;20042;-81
2021/05/07 10:55:15;;;;;;;4.47;2.47;;;;;;;14.85;43.29;101586.66;10375051;28;20248;-79
2021/05/07 11:00:17;;;;;;;9.50;3.55;;;;;;;14.52;45.16;101585.41;10376572;28;20159;-78
2021/05/07 11:05:42;;;;;;;8.80;3.47;;;;;;;14.67;43.32;101587.19;10347457;28;20398;-79
2021/05/07 11:10:43;;;;;;;7.78;3.42;;;;;;;14.72;45.36;101583.38;10350663;28;20030;-78
2021/05/07 11:15:54;;;;;;;6.03;4.10;;;;;;;14.80;45.17;101599.44;10362211;28;20030;-78
2021/05/07 11:20:55;;;;;;;6.97;4.32;;;;;;;14.49;45.86;101591.59;10357459;28;20076;-77
2021/05/07 11:25:56;;;;;;;8.57;4.13;;;;;;;14.64;45.86;101549.84;10352780;28;20034;-81
2021/05/07 11:30:58;;;;;;;12.15;4.90;;;;;;;15.22;45.34;101586.69;10357586;28;20619;-77
2021/05/07 11:36:18;;;;;;;6.63;4.38;;;;;;;15.10;44.20;101609.53;10325103;28;20497;-80
2021/05/07 11:41:26;;;;;;;6.70;4.65;;;;;;;14.97;43.46;101616.34;10343680;28;20188;-81
2021/05/07 11:46:28;;;;;;;9.68;4.60;;;;;;;14.99;45.29;101624.94;10357218;28;20033;-83
2021/05/07 11:51:29;;;;;;;8.25;3.70;;;;;;;13.91;44.37;101563.53;10358273;28;20045;-77
2021/05/07 11:56:30;;;;;;;7.00;4.93;;;;;;;14.22;45.59;101629.66;10337901;28;20076;-78
2021/05/07 12:01:30;;;;;;;9.35;4.18;;;;;;;14.68;45.13;101632.31;10358563;28;20462;-79
2021/05/07 12:06:41;;;;;;;9.32;4.60;;;;;;;14.56;46.07;101618.94;10359318;28;20026;-80
2021/05/07 12:11:56;;;;;;;6.80;4.45;;;;;;;14.66;46.28;101640.06;10314384;28;20131;-79
2021/05/07 12:17:00;;;;;;;7.25;4.60;;;;;;;15.05;45.34;101639.81;10373608;28;20029;-79
2021/05/07 12:22:02;;;;;;;8.63;4.88;;;;;;;15.47;44.30;101649.59;10371113;28;20077;-78
2021/05/07 12:27:03;;;;;;;10.00;5.25;;;;;;;15.25;44.54;101648.59;10318486;28;20041;-81
2021/05/07 12:32:04;;;;;;;6.18;4.43;;;;;;;15.17;44.19;101669.53;10353871;28;20042;-77
2021/05/07 12:37:05;;;;;;;7.60;5.00;;;;;;;14.58;44.90;101649.28;10366290;28;20769;-77
2021/05/07 12:42:07;;;;;;;8.15;4.88;;;;;;;14.14;45.44;101674.22;10344220;28;20050;-78
2021/05/07 12:47:08;;;;;;;5.63;3.80;;;;;;;14.06;44.27;101678.75;10345432;28;20034;-77
2021/05/07 12:52:08;;;;;;;7.22;4.15;;;;;;;14.08;46.20;101686.53;10353108;28;20038;-79
2021/05/07 12:57:09;;;;;;;7.65;4.05;;;;;;;14.26;45.98;101687.63;10331946;28;20042;-78
2021/05/07 13:02:09;;;;;;;8.52;3.83;;;;;;;13.92;43.75;101657.53;10353598;28;20414;-74
2021/05/07 13:07:10;;;;;;;5.97;4.57;;;;;;;13.57;47.72;101640.56;10368596;28;20046;-73
2021/05/07 13:12:10;;;;;;;6.20;4.10;;;;;;;14.00;46.39;101690.28;10355902;28;20095;-74
2021/05/07 13:17:18;;;;;;;5.38;3.70;;;;;;;14.68;44.28;101716.69;10374409;28;20034;-75
2021/05/07 13:22:19;;;;;;;8.30;3.55;;;;;;;14.58;40.34;101709.16;10371857;28;20042;-75
2021/05/07 13:27:20;;;;;;;3.92;2.47;;;;;;;14.93;39.86;101702.63;10333067;28;20053;-76
2021/05/07 13:32:21;;;;;;;4.05;2.58;;;;;;;14.45;43.12;101688.69;10369271;28;20034;-76
2021/05/07 13:37:21;;;;;;;6.00;2.35;;;;;;;14.69;42.36;101710.06;10374197;28;20438;-75
2021/05/07 13:42:22;;;;;;;3.72;1.98;;;;;;;15.31;42.62;101706.25;10370437;28;20053;-76
2021/05/07 13:47:22;;;;;;;3.40;1.88;;;;;;;15.59;41.43;101708.50;10361416;28;20117;-75
2021/05/07 13:52:23;;;;;;;4.40;2.00;;;;;;;15.45;39.74;101733.69;10367835;28;20065;-75
2021/05/07 13:57:23;;;;;;;5.82;1.92;;;;;;;14.99;41.02;101728.41;10363527;28;20549;-74
2021/05/07 14:02:24;;;;;;;2.30;1.55;;;;;;;14.88;40.12;101722.00;10359611;28;20050;-74
2021/05/07 14:07:25;;;;;;;3.80;1.58;;;;;;;14.89;40.15;101658.25;10364971;28;20036;-75
2021/05/07 14:12:25;;;;;;;4.18;1.90;;;;;;;14.90;41.62;101687.03;10365355;28;20045;-74
2021/05/07 14:17:26;;;;;;;5.00;2.17;;;;;;;14.45;43.32;101726.78;10365713;28;20052;-75
2021/05/07 14:22:27;;;;;;;3.90;1.52;;;;;;;14.78;41.22;101747.91;10346424;28;20049;-75
2021/05/07 14:27:27;;;;;;;5.40;1.33;;;;;;;14.95;41.85;101724.84;10352244;28;20034;-75
2021/05/07 14:32:28;;;;;;;7.30;1.63;;;;;;;14.60;42.79;101712.25;10372344;28;20041;-74
2021/05/07 14:37:28;;;;;;;5.47;1.88;;;;;;;14.58;44.82;101758.13;10355580;28;20059;-77
2021/05/07 14:42:29;;;;;;;3.40;1.35;;;;;;;14.70;42.83;101695.31;10331855;28;20061;-77
2021/05/07 14:47:29;;;;;;;3.47;1.42;;;;;;;14.69;42.62;101753.63;10353464;28;20046;-75
2021/05/07 14:52:30;;;;;;;4.75;1.98;;;;;;;14.57;43.90;101718.44;10357708;28;20037;-75
2021/05/07 14:57:30;;;;;;;7.55;1.73;;;;;;;14.68;46.42;101757.50;10350681;28;20025;-76
2021/05/07 15:02:31;;;;;;;7.05;1.98;;;;;;;14.07;47.00;101739.34;10358144;28;20045;-78
2021/05/07 15:07:36;;;;;;;2.80;1.65;;;;;;;14.32;48.08;101756.88;10351133;28;20124;-81
2021/05/07 15:12:37;;;;;;;5.38;1.90;;;;;;;14.20;47.59;101748.09;10358277;28;20485;-78
2021/05/07 15:17:38;;;;;;;6.35;2.85;;;;;;;14.18;49.13;101729.44;10358348;28;20062;-80
2021/05/07 15:22:43;;;;;;;4.05;1.85;;;;;;;14.58;47.75;101739.06;10364652;28;20033;-82
2021/05/07 15:27:43;;;;;;;;;;;;;;;14.33;48.74;101758.44;10347781;28;20154;-78
2021/05/07 15:32:44;;;;;;;4.60;2.40;;;;;;;14.43;48.48;101745.38;10346625;28;19997;-79
2021/05/07 15:37:47;;;;;;;7.15;2.53;;;;;;;14.46;48.67;101755.53;10346868;28;20045;-85
2021/05/07 15:42:47;;;;;;;4.00;1.77;;;;;;;14.57;47.71;101702.13;10350090;28;20421;-82
2021/05/07 15:47:48;;;;;;;5.07;1.75;;;;;;;15.02;45.90;101763.06;10333786;28;20259;-82
2021/05/07 15:52:48;;;;;;;4.32;1.88;;;;;;;15.21;44.44;101768.41;10346732;28;20486;-80
2021/05/07 15:57:49;;;;;;;2.83;1.35;;;;;;;14.50;44.64;101759.09;10364884;28;20064;-80
2021/05/07 16:02:53;;;;;;;5.20;1.90;;;;;;;14.03;45.70;101749.34;10368734;28;20050;-82
2021/05/07 16:07:53;;;;;;;3.85;1.30;;;;;;;13.48;45.38;101720.38;10363259;28;20042;-86
2021/05/07 16:12:54;;;;;;;4.22;1.35;;;;;;;13.81;46.84;101759.81;10337557;28;20052;-86
2021/05/07 16:17:56;;;;;;;3.22;1.25;;;;;;;13.65;45.80;101767.25;10352378;28;20049;-84
2021/05/07 16:22:56;;;;;;;6.37;1.77;;;;;;;13.71;46.67;101744.06;10363900;28;20034;-84
2021/05/07 16:27:57;;;;;;;4.63;1.83;;;;;;;14.02;45.98;101758.66;10372029;28;20720;-84
2021/05/07 16:32:57;;;;;;;5.20;1.45;;;;;;;13.82;45.82;101750.50;10354209;28;20041;-83
2021/05/07 16:38:06;;;;;;;6.72;2.50;;;;;;;13.96;45.87;101766.31;10354875;28;20046;-79
2021/05/07 16:43:07;;;;;;;5.78;2.17;;;;;;;13.58;46.86;101708.13;10350338;28;20053;-80
2021/05/07 16:48:07;;;;;;;5.53;1.80;;;;;;;13.76;47.83;101746.53;10348775;28;20144;-82
2021/05/07 16:53:08;;;;;;;3.80;1.80;;;;;;;13.49;47.42;101656.72;10354071;28;20042;-84
2021/05/07 16:58:09;;;;;;;4.90;1.90;;;;;;;13.92;46.66;101717.34;10369766;28;20137;-80
2021/05/07 17:03:09;;;;;;;6.55;2.50;;;;;;;14.34;44.92;101743.69;10323973;28;20088;-78
2021/05/07 17:08:10;;;;;;;6.47;2.50;;;;;;;13.66;46.52;101730.78;10355210;28;20471;-80
2021/05/07 17:13:11;;;;;;;10.68;2.67;;;;;;;13.73;48.10;101752.66;10354793;28;20582;-79
2021/05/07 17:18:11;;;;;;;8.38;2.75;;;;;;;13.40;46.91;101762.09;10364071;28;20041;-79
2021/05/07 17:23:12;;;;;;;4.70;2.90;;;;;;;13.02;47.57;101720.13;10356852;28;20046;-81
2021/05/07 17:28:16;;;;;;;5.75;2.60;;;;;;;13.09;48.42;101742.00;10336900;28;20037;-79
2021/05/07 17:33:16;;;;;;;7.40;2.60;;;;;;;13.13;49.04;101752.16;10376115;28;20557;-80
2021/05/07 17:38:17;;;;;;;7.57;2.83;;;;;;;13.06;49.10;101740.00;10378854;28;20054;-79
2021/05/07 17:43:18;;;;;;;6.97;2.58;;;;;;;12.94;49.76;101745.56;10345993;28;20522;-76
2021/05/07 17:48:19;;;;;;;8.30;2.78;;;;;;;12.29;50.08;101699.03;10361946;28;20237;-84
2021/05/07 17:53:19;;;;;;;5.97;2.47;;;;;;;12.32;50.75;101706.47;10343141;28;20356;-76
2021/05/07 17:58:20;;;;;;;7.80;3.90;;;;;;;12.12;51.52;101703.66;10338281;28;20179;-79
2021/05/07 18:03:20;;;;;;;10.00;2.92;;;;;;;12.44;51.64;101738.91;10357774;28;20091;-75
2021/05/07 18:08:21;;;;;;;4.93;2.10;;;;;;;12.38;50.45;101745.75;10355924;28;20048;-77
2021/05/07 18:13:21;;;;;;;7.18;2.58;;;;;;;12.26;50.95;101736.56;10361590;28;20092;-77
2021/05/07 18:18:22;;;;;;;5.13;2.53;;;;;;;11.59;51.08;101667.78;10359691;28;20025;-76
2021/05/07 18:23:22;;;;;;;6.00;2.40;;;;;;;11.95;52.24;101755.50;10339489;28;20034;-74
2021/05/07 18:28:23;;;;;;;6.68;2.90;;;;;;;11.91;52.11;101760.00;10368773;28;20033;-76
2021/05/07 18:33:23;;;;;;;9.18;4.75;;;;;;;11.97;52.29;101758.59;10351141;28;20034;-77
2021/05/07 18:38:24;;;;;;;10.82;6.35;;;;;;;11.85;52.33;101752.09;10331766;28;20102;-77
2021/05/07 18:43:26;;;;;;;5.68;2.53;;;;;;;11.77;53.06;101744.91;10330008;28;20049;-75
2021/05/07 18:48:26;;;;;;;4.18;2.50;;;;;;;11.65;54.06;101742.25;10371666;28;20494;-76
2021/05/07 18:53:28;;;;;;;5.30;2.35;;;;;;;11.47;54.78;101743.66;10358258;28;20050;-78
2021/05/07 18:58:29;;;;;;;7.10;2.58;;;;;;;11.46;54.75;101755.63;10367253;28;20041;-79
2021/05/07 19:03:29;;;;;;;7.13;2.75;;;;;;;11.26;55.03;101752.72;10338774;28;20041;-77
2021/05/07 19:08:30;;;;;;;6.95;2.63;;;;;;;10.91;55.90;101715.34;10361139;28;20022;-77
2021/05/07 19:13:33;;;;;;;5.60;2.35;;;;;;;10.96;57.08;101734.06;10357800;28;20367;-77
2021/05/07 19:18:34;;;;;;;4.60;1.90;;;;;;;10.89;58.22;101744.66;10356326;28;20042;-76
2021/05/07 19:23:34;;;;;;;4.85;2.50;;;;;;;10.62;58.51;101738.00;10340185;28;20072;-76
2021/05/07 19:28:36;;;;;;;4.63;2.53;;;;;;;10.54;59.55;101755.91;10360638;28;20359;-81
2021/05/07 19:33:37;;;;;;;6.57;2.55;;;;;;;10.43;59.82;101754.75;10274396;28;20057;-80
2021/05/07 19:38:37;;;;;;;8.07;2.80;;;;;;;10.23;60.86;101755.56;10244905;28;20582;-81
2021/05/07 19:43:38;;;;;;;9.02;2.80;;;;;;;10.14;60.90;101752.97;10289523;28;20063;-79
2021/05/07 19:48:38;;;;;;;6.25;2.33;;;;;;;9.97;61.94;101766.63;10259727;28;20057;-78
2021/05/07 19:53:39;;;;;;;6.78;2.40;;;;;;;9.90;61.70;101742.88;10288729;28;20391;-79
2021/05/07 19:58:39;;;;;;;5.43;2.00;;;;;;;9.79;62.64;101768.72;10275244;28;20050;-81
2021/05/07 20:03:40;;;;;;;6.55;3.47;;;;;;;9.72;63.06;101770.03;10313176;28;20068;-81
2021/05/07 20:08:41;;;;;;;10.48;6.05;;;;;;;9.59;64.65;101776.47;10337670;28;20546;-77
2021/05/07 20:13:41;;;;;;;7.32;4.10;;;;;;;9.46;66.00;101772.16;10347820;28;20498;-77
2021/05/07 20:18:41;;;;;;;26.98;15.05;;;;;;;8.98;66.73;101708.66;10333320;28;20494;-80
2021/05/07 20:23:42;;;;;;;45.90;22.60;;;;;;;9.23;67.17;101764.34;10355869;28;20041;-80
2021/05/07 20:28:45;;;;;;;44.75;16.40;;;;;;;8.37;67.39;101668.50;10339918;28;20045;-81
2021/05/07 20:33:49;;;;;;;25.27;14.32;;;;;;;8.79;68.02;101717.94;10359711;28;20050;-80
2021/05/07 20:38:50;;;;;;;44.83;25.80;;;;;;;9.03;68.27;101775.88;10357564;28;20390;-77
2021/05/07 20:43:50;;;;;;;11.32;5.85;;;;;;;8.84;69.30;101769.00;10358416;28;20037;-76
2021/05/07 20:48:51;;;;;;;12.65;7.40;;;;;;;8.64;70.75;101748.94;10353048;28;20041;-76
2021/05/07 20:53:51;;;;;;;14.93;5.95;;;;;;;8.31;71.40;101713.69;10349617;28;20095;-77
2021/05/07 20:58:52;;;;;;;9.25;4.88;;;;;;;8.42;72.22;101747.28;10348594;28;20042;-77
2021/05/07 21:03:52;;;;;;;7.78;4.35;;;;;;;8.32;73.38;101742.19;10347344;28;20030;-77
2021/05/07 21:08:53;;;;;;;7.65;4.07;;;;;;;8.35;74.65;101752.34;10348683;28;20046;-78
2021/05/07 21:13:53;;;;;;;7.00;4.22;;;;;;;8.22;77.57;101764.09;10350479;28;20494;-79
2021/05/07 21:18:54;;;;;;;8.07;4.25;;;;;;;7.91;79.09;101732.78;10366484;28;20038;-77
2021/05/07 21:23:54;;;;;;;13.18;4.75;;;;;;;8.07;78.94;101767.28;10355338;28;20046;-78
2021/05/07 21:28:55;;;;;;;7.72;4.18;;;;;;;7.87;78.44;101769.53;10342668;28;20176;-75
2021/05/07 21:33:55;;;;;;;8.23;3.58;;;;;;;7.68;78.87;101760.97;10357821;28;20041;-75
2021/05/07 21:38:56;;;;;;;15.02;4.72;;;;;;;7.59;79.12;101761.75;10349934;28;20046;-77
2021/05/07 21:43:56;;;;;;;7.57;3.60;;;;;;;7.22;79.74;101713.94;10368845;28;20046;-78
2021/05/07 21:48:58;;;;;;;7.43;3.80;;;;;;;7.38;80.26;101747.34;10329101;28;20069;-75
2021/05/07 21:53:58;;;;;;;7.88;3.45;;;;;;;7.06;79.85;101709.03;10354392;28;20049;-76
2021/05/07 21:58:59;;;;;;;7.05;3.80;;;;;;;7.33;80.20;101764.41;10322287;28;20038;-75
2021/05/07 22:04:00;;;;;;;7.10;3.60;;;;;;;6.94;80.75;101722.28;10352273;28;20083;-75
2021/05/07 22:09:01;;;;;;;8.98;3.67;;;;;;;7.20;82.11;101766.16;10342118;28;20034;-74
2021/05/07 22:14:02;;;;;;;8.77;4.03;;;;;;;7.13;81.87;101756.97;10360950;28;20053;-76
2021/05/07 22:19:04;;;;;;;6.07;3.42;;;;;;;7.10;82.64;101774.53;10357404;28;20092;-76
2021/05/07 22:24:05;;;;;;;7.78;3.80;;;;;;;6.86;82.78;101741.84;10363597;28;20510;-78
2021/05/07 22:29:06;;;;;;;8.70;3.80;;;;;;;6.87;83.02;101764.97;10356623;28;20470;-78
2021/05/07 22:34:07;;;;;;;13.05;4.70;;;;;;;6.78;83.38;101757.63;10344774;28;20042;-76
2021/05/07 22:39:07;;;;;;;7.65;3.83;;;;;;;6.65;83.99;101758.53;10359825;28;20161;-74
2021/05/07 22:44:08;;;;;;;13.02;5.22;;;;;;;6.53;84.66;101744.88;10365175;28;20053;-74
2021/05/07 22:49:08;;;;;;;9.73;5.38;;;;;;;6.44;85.03;101762.84;10356620;28;20030;-74
2021/05/07 22:54:09;;;;;;;12.32;5.55;;;;;;;6.38;85.27;101731.88;10378147;28;20339;-74
2021/05/07 22:59:10;;;;;;;7.80;4.93;;;;;;;6.44;85.19;101746.72;10368687;28;20052;-76
2021/05/07 23:04:10;;;;;;;10.63;5.47;;;;;;;6.48;84.73;101736.97;10360321;28;20046;-74
2021/05/07 23:09:11;;;;;;;10.05;5.35;;;;;;;6.57;84.38;101745.84;10378734;28;20037;-74